sensor_id;sensor_type;location;lat;lon;timestamp;P1;durP1;ratioP1;P2;durP2;ratioP2
22284;SDS011;11311;52.192;20.900;2023-04-06T00:00:43;6.13;;;5.10;;
22284;SDS011;11311;52.192;20.900;2023-04-06T00:03:12;9.43;;;4.82;;
22284;SDS011;11311;52.192;20.900;2023-04-06T00:05:42;12.18;;;5.47;;
22284;SDS011;11311;52.192;20.900;2023-04-06T00:08:12;7.03;;;4.60;;
22284;SDS011;11311;52.192;20.900;2023-04-06T00:10:41;4.65;;;3.53;;
22284;SDS011;11311;52.192;20.900;2023-04-06T00:13:11;9.35;;;4.97;;
22284;SDS011;11311;52.192;20.900;2023-04-06T00:15:40;8.23;;;6.45;;
22284;SDS011;11311;52.192;20.900;2023-04-06T00:18:10;5.53;;;4.82;;
22284;SDS011;11311;52.192;20.900;2023-04-06T00:20:39;7.05;;;5.05;;
22284;SDS011;11311;52.192;20.900;2023-04-06T00:23:08;6.93;;;4.85;;
22284;SDS011;11311;52.192;20.900;2023-04-06T00:25:37;6.47;;;4.70;;
22284;SDS011;11311;52.192;20.900;2023-04-06T00:28:06;7.28;;;4.85;;
22284;SDS011;11311;52.192;20.900;2023-04-06T00:30:35;8.23;;;4.53;;
22284;SDS011;11311;52.192;20.900;2023-04-06T00:33:04;6.25;;;5.03;;
22284;SDS011;11311;52.192;20.900;2023-04-06T00:35:35;7.90;;;5.73;;
22284;SDS011;11311;52.192;20.900;2023-04-06T00:38:06;10.18;;;5.10;;
22284;SDS011;11311;52.192;20.900;2023-04-06T00:40:34;9.40;;;4.85;;
22284;SDS011;11311;52.192;20.900;2023-04-06T00:43:03;7.68;;;4.43;;
22284;SDS011;11311;52.192;20.900;2023-04-06T00:45:33;6.40;;;4.88;;
22284;SDS011;11311;52.192;20.900;2023-04-06T00:48:02;9.48;;;5.20;;
22284;SDS011;11311;52.192;20.900;2023-04-06T00:50:31;6.13;;;4.17;;
22284;SDS011;11311;52.192;20.900;2023-04-06T00:53:02;7.30;;;5.22;;
22284;SDS011;11311;52.192;20.900;2023-04-06T00:57:59;7.18;;;5.38;;
22284;SDS011;11311;52.192;20.900;2023-04-06T01:00:34;8.85;;;4.88;;
22284;SDS011;11311;52.192;20.900;2023-04-06T01:03:03;5.32;;;4.82;;
22284;SDS011;11311;52.192;20.900;2023-04-06T01:05:41;10.23;;;5.28;;
22284;SDS011;11311;52.192;20.900;2023-04-06T01:08:20;11.77;;;4.88;;
22284;SDS011;11311;52.192;20.900;2023-04-06T01:10:53;10.07;;;5.35;;
22284;SDS011;11311;52.192;20.900;2023-04-06T01:13:25;5.18;;;4.10;;
22284;SDS011;11311;52.192;20.900;2023-04-06T01:15:59;8.15;;;5.05;;
22284;SDS011;11311;52.192;20.900;2023-04-06T01:18:42;5.63;;;4.63;;
22284;SDS011;11311;52.192;20.900;2023-04-06T01:21:26;7.03;;;5.00;;
22284;SDS011;11311;52.192;20.900;2023-04-06T01:24:22;6.60;;;4.72;;
22284;SDS011;11311;52.192;20.900;2023-04-06T01:27:02;7.00;;;4.82;;
22284;SDS011;11311;52.192;20.900;2023-04-06T01:29:58;9.73;;;5.30;;
22284;SDS011;11311;52.192;20.900;2023-04-06T01:32:42;6.47;;;4.30;;
22284;SDS011;11311;52.192;20.900;2023-04-06T01:35:15;8.25;;;4.80;;
22284;SDS011;11311;52.192;20.900;2023-04-06T01:37:53;8.25;;;5.18;;
22284;SDS011;11311;52.192;20.900;2023-04-06T01:40:30;8.40;;;4.72;;
22284;SDS011;11311;52.192;20.900;2023-04-06T01:43:00;7.93;;;5.22;;
22284;SDS011;11311;52.192;20.900;2023-04-06T01:45:45;11.25;;;5.35;;
22284;SDS011;11311;52.192;20.900;2023-04-06T01:48:19;6.80;;;4.43;;
22284;SDS011;11311;52.192;20.900;2023-04-06T01:50:48;6.18;;;4.57;;
22284;SDS011;11311;52.192;20.900;2023-04-06T01:53:24;7.53;;;4.22;;
22284;SDS011;11311;52.192;20.900;2023-04-06T01:56:10;8.25;;;4.47;;
22284;SDS011;11311;52.192;20.900;2023-04-06T01:58:46;7.20;;;4.50;;
22284;SDS011;11311;52.192;20.900;2023-04-06T02:01:16;8.98;;;5.03;;
22284;SDS011;11311;52.192;20.900;2023-04-06T02:06:25;8.13;;;5.47;;
22284;SDS011;11311;52.192;20.900;2023-04-06T02:08:55;9.13;;;5.07;;
22284;SDS011;11311;52.192;20.900;2023-04-06T02:11:25;11.27;;;5.25;;
22284;SDS011;11311;52.192;20.900;2023-04-06T02:13:55;7.45;;;5.05;;
22284;SDS011;11311;52.192;20.900;2023-04-06T02:16:28;9.45;;;5.20;;
22284;SDS011;11311;52.192;20.900;2023-04-06T02:18:58;11.93;;;5.80;;
22284;SDS011;11311;52.192;20.900;2023-04-06T02:21:27;11.45;;;5.75;;
22284;SDS011;11311;52.192;20.900;2023-04-06T02:23:57;9.23;;;6.13;;
22284;SDS011;11311;52.192;20.900;2023-04-06T02:26:27;8.20;;;4.80;;
22284;SDS011;11311;52.192;20.900;2023-04-06T02:28:56;8.77;;;5.07;;
22284;SDS011;11311;52.192;20.900;2023-04-06T02:31:25;11.30;;;6.75;;
22284;SDS011;11311;52.192;20.900;2023-04-06T02:33:55;16.95;;;6.97;;
22284;SDS011;11311;52.192;20.900;2023-04-06T02:36:25;11.40;;;6.60;;
22284;SDS011;11311;52.192;20.900;2023-04-06T02:38:54;10.05;;;6.35;;
22284;SDS011;11311;52.192;20.900;2023-04-06T02:41:23;10.00;;;6.38;;
22284;SDS011;11311;52.192;20.900;2023-04-06T02:43:55;16.92;;;6.95;;
22284;SDS011;11311;52.192;20.900;2023-04-06T02:46:35;12.73;;;7.15;;
22284;SDS011;11311;52.192;20.900;2023-04-06T02:49:04;15.20;;;7.25;;
22284;SDS011;11311;52.192;20.900;2023-04-06T02:51:34;12.70;;;7.50;;
22284;SDS011;11311;52.192;20.900;2023-04-06T02:54:30;12.82;;;7.90;;
22284;SDS011;11311;52.192;20.900;2023-04-06T02:57:02;18.30;;;8.02;;
22284;SDS011;11311;52.192;20.900;2023-04-06T02:59:42;14.77;;;9.43;;
22284;SDS011;11311;52.192;20.900;2023-04-06T03:02:26;20.77;;;9.85;;
22284;SDS011;11311;52.192;20.900;2023-04-06T03:05:04;18.73;;;9.30;;
22284;SDS011;11311;52.192;20.900;2023-04-06T03:07:37;18.88;;;10.05;;
22284;SDS011;11311;52.192;20.900;2023-04-06T03:10:11;19.00;;;9.25;;
22284;SDS011;11311;52.192;20.900;2023-04-06T03:12:40;13.50;;;7.78;;
22284;SDS011;11311;52.192;20.900;2023-04-06T03:15:20;23.95;;;9.45;;
22284;SDS011;11311;52.192;20.900;2023-04-06T03:17:55;14.93;;;9.07;;
22284;SDS011;11311;52.192;20.900;2023-04-06T03:20:40;17.77;;;9.85;;
22284;SDS011;11311;52.192;20.900;2023-04-06T03:23:10;22.77;;;10.02;;
22284;SDS011;11311;52.192;20.900;2023-04-06T03:25:43;18.30;;;10.07;;
22284;SDS011;11311;52.192;20.900;2023-04-06T03:28:16;18.83;;;10.52;;
22284;SDS011;11311;52.192;20.900;2023-04-06T03:30:52;19.40;;;10.93;;
22284;SDS011;11311;52.192;20.900;2023-04-06T03:33:56;17.33;;;10.27;;
22284;SDS011;11311;52.192;20.900;2023-04-06T03:36:31;20.33;;;11.07;;
22284;SDS011;11311;52.192;20.900;2023-04-06T03:39:02;29.77;;;12.18;;
22284;SDS011;11311;52.192;20.900;2023-04-06T03:41:34;21.38;;;10.07;;
22284;SDS011;11311;52.192;20.900;2023-04-06T03:44:18;25.92;;;11.32;;
22284;SDS011;11311;52.192;20.900;2023-04-06T03:46:49;18.98;;;11.05;;
22284;SDS011;11311;52.192;20.900;2023-04-06T03:49:19;18.02;;;10.98;;
22284;SDS011;11311;52.192;20.900;2023-04-06T03:51:52;20.35;;;11.48;;
22284;SDS011;11311;52.192;20.900;2023-04-06T03:54:22;24.40;;;12.23;;
22284;SDS011;11311;52.192;20.900;2023-04-06T03:56:51;22.75;;;11.48;;
22284;SDS011;11311;52.192;20.900;2023-04-06T03:59:20;23.45;;;12.82;;
22284;SDS011;11311;52.192;20.900;2023-04-06T04:01:53;29.48;;;11.50;;
22284;SDS011;11311;52.192;20.900;2023-04-06T04:04:23;24.75;;;12.35;;
22284;SDS011;11311;52.192;20.900;2023-04-06T04:06:52;25.35;;;13.60;;
22284;SDS011;11311;52.192;20.900;2023-04-06T04:09:21;19.85;;;11.13;;
22284;SDS011;11311;52.192;20.900;2023-04-06T04:11:50;23.98;;;11.75;;
22284;SDS011;11311;52.192;20.900;2023-04-06T04:14:20;21.90;;;11.70;;
22284;SDS011;11311;52.192;20.900;2023-04-06T04:16:49;20.75;;;12.45;;
22284;SDS011;11311;52.192;20.900;2023-04-06T04:19:20;20.27;;;12.20;;
22284;SDS011;11311;52.192;20.900;2023-04-06T04:21:49;30.90;;;12.80;;
22284;SDS011;11311;52.192;20.900;2023-04-06T04:24:26;26.70;;;12.73;;
22284;SDS011;11311;52.192;20.900;2023-04-06T04:26:55;27.10;;;13.25;;
22284;SDS011;11311;52.192;20.900;2023-04-06T04:29:25;32.83;;;12.52;;
22284;SDS011;11311;52.192;20.900;2023-04-06T04:31:55;26.10;;;12.90;;
22284;SDS011;11311;52.192;20.900;2023-04-06T04:34:27;30.08;;;12.57;;
22284;SDS011;11311;52.192;20.900;2023-04-06T04:36:57;21.58;;;11.52;;
22284;SDS011;11311;52.192;20.900;2023-04-06T04:39:41;27.83;;;12.27;;
22284;SDS011;11311;52.192;20.900;2023-04-06T04:42:11;16.37;;;11.23;;
22284;SDS011;11311;52.192;20.900;2023-04-06T04:44:46;21.83;;;12.45;;
22284;SDS011;11311;52.192;20.900;2023-04-06T04:47:20;29.50;;;12.50;;
22284;SDS011;11311;52.192;20.900;2023-04-06T04:49:50;24.42;;;11.48;;
22284;SDS011;11311;52.192;20.900;2023-04-06T04:52:22;26.92;;;11.57;;
22284;SDS011;11311;52.192;20.900;2023-04-06T04:55:15;57.80;;;13.27;;
22284;SDS011;11311;52.192;20.900;2023-04-06T04:57:48;21.88;;;11.93;;
22284;SDS011;11311;52.192;20.900;2023-04-06T05:00:22;20.73;;;10.82;;
22284;SDS011;11311;52.192;20.900;2023-04-06T05:02:55;17.40;;;10.10;;
22284;SDS011;11311;52.192;20.900;2023-04-06T05:05:29;20.33;;;11.13;;
22284;SDS011;11311;52.192;20.900;2023-04-06T05:07:59;21.73;;;12.07;;
22284;SDS011;11311;52.192;20.900;2023-04-06T05:10:48;21.63;;;10.93;;
22284;SDS011;11311;52.192;20.900;2023-04-06T05:13:18;14.98;;;10.77;;
22284;SDS011;11311;52.192;20.900;2023-04-06T05:15:51;15.75;;;10.10;;
22284;SDS011;11311;52.192;20.900;2023-04-06T05:18:27;18.20;;;10.15;;
22284;SDS011;11311;52.192;20.900;2023-04-06T05:20:58;22.55;;;10.70;;
22284;SDS011;11311;52.192;20.900;2023-04-06T05:26:16;26.08;;;9.57;;
22284;SDS011;11311;52.192;20.900;2023-04-06T05:28:46;20.20;;;10.10;;
22284;SDS011;11311;52.192;20.900;2023-04-06T05:31:18;23.33;;;10.23;;
22284;SDS011;11311;52.192;20.900;2023-04-06T05:33:49;19.35;;;8.95;;
22284;SDS011;11311;52.192;20.900;2023-04-06T05:36:33;19.17;;;8.13;;
22284;SDS011;11311;52.192;20.900;2023-04-06T05:39:08;14.75;;;8.55;;
22284;SDS011;11311;52.192;20.900;2023-04-06T05:41:45;17.55;;;9.05;;
22284;SDS011;11311;52.192;20.900;2023-04-06T05:44:16;20.00;;;9.25;;
22284;SDS011;11311;52.192;20.900;2023-04-06T05:46:51;20.25;;;8.50;;
22284;SDS011;11311;52.192;20.900;2023-04-06T05:49:21;11.27;;;7.57;;
22284;SDS011;11311;52.192;20.900;2023-04-06T05:51:51;12.55;;;7.85;;
22284;SDS011;11311;52.192;20.900;2023-04-06T05:54:21;14.82;;;7.95;;
22284;SDS011;11311;52.192;20.900;2023-04-06T05:56:55;13.45;;;7.45;;
22284;SDS011;11311;52.192;20.900;2023-04-06T05:59:25;13.50;;;7.80;;
22284;SDS011;11311;52.192;20.900;2023-04-06T06:01:54;14.23;;;6.80;;
22284;SDS011;11311;52.192;20.900;2023-04-06T06:04:23;16.70;;;8.05;;
22284;SDS011;11311;52.192;20.900;2023-04-06T06:06:55;18.85;;;7.53;;
22284;SDS011;11311;52.192;20.900;2023-04-06T06:09:34;11.00;;;6.57;;
22284;SDS011;11311;52.192;20.900;2023-04-06T06:12:22;11.32;;;7.38;;
22284;SDS011;11311;52.192;20.900;2023-04-06T06:14:53;11.35;;;6.47;;
22284;SDS011;11311;52.192;20.900;2023-04-06T06:17:25;18.65;;;7.57;;
22284;SDS011;11311;52.192;20.900;2023-04-06T06:19:55;14.80;;;5.85;;
22284;SDS011;11311;52.192;20.900;2023-04-06T06:22:28;16.02;;;7.57;;
22284;SDS011;11311;52.192;20.900;2023-04-06T06:24:57;15.10;;;6.55;;
22284;SDS011;11311;52.192;20.900;2023-04-06T06:27:27;10.20;;;6.57;;
22284;SDS011;11311;52.192;20.900;2023-04-06T06:29:56;11.35;;;5.75;;
22284;SDS011;11311;52.192;20.900;2023-04-06T06:34:56;12.07;;;5.97;;
22284;SDS011;11311;52.192;20.900;2023-04-06T06:37:24;12.57;;;5.95;;
22284;SDS011;11311;52.192;20.900;2023-04-06T06:39:58;12.13;;;6.70;;
22284;SDS011;11311;52.192;20.900;2023-04-06T06:42:31;7.50;;;5.78;;
22284;SDS011;11311;52.192;20.900;2023-04-06T06:45:14;16.92;;;8.13;;
22284;SDS011;11311;52.192;20.900;2023-04-06T06:47:44;7.47;;;5.33;;
22284;SDS011;11311;52.192;20.900;2023-04-06T06:50:13;10.05;;;5.28;;
22284;SDS011;11311;52.192;20.900;2023-04-06T06:52:42;9.75;;;5.50;;
22284;SDS011;11311;52.192;20.900;2023-04-06T06:55:13;7.78;;;5.03;;
22284;SDS011;11311;52.192;20.900;2023-04-06T06:57:42;10.15;;;4.72;;
22284;SDS011;11311;52.192;20.900;2023-04-06T07:00:14;9.77;;;5.13;;
22284;SDS011;11311;52.192;20.900;2023-04-06T07:02:46;8.55;;;5.32;;
22284;SDS011;11311;52.192;20.900;2023-04-06T07:05:15;8.00;;;4.70;;
22284;SDS011;11311;52.192;20.900;2023-04-06T07:07:55;6.72;;;4.88;;
22284;SDS011;11311;52.192;20.900;2023-04-06T07:10:27;7.57;;;4.15;;
22284;SDS011;11311;52.192;20.900;2023-04-06T07:12:56;8.73;;;4.07;;
22284;SDS011;11311;52.192;20.900;2023-04-06T07:15:25;8.77;;;4.90;;
22284;SDS011;11311;52.192;20.900;2023-04-06T07:17:55;5.22;;;4.07;;
22284;SDS011;11311;52.192;20.900;2023-04-06T07:20:25;9.88;;;4.85;;
22284;SDS011;11311;52.192;20.900;2023-04-06T07:22:54;11.35;;;5.07;;
22284;SDS011;11311;52.192;20.900;2023-04-06T07:25:24;9.63;;;5.35;;
22284;SDS011;11311;52.192;20.900;2023-04-06T07:27:54;9.35;;;4.40;;
22284;SDS011;11311;52.192;20.900;2023-04-06T07:30:24;6.43;;;4.55;;
22284;SDS011;11311;52.192;20.900;2023-04-06T07:32:59;10.20;;;4.43;;
22284;SDS011;11311;52.192;20.900;2023-04-06T07:35:29;11.82;;;4.72;;
22284;SDS011;11311;52.192;20.900;2023-04-06T07:37:58;7.10;;;5.40;;
22284;SDS011;11311;52.192;20.900;2023-04-06T07:40:28;7.18;;;4.43;;
22284;SDS011;11311;52.192;20.900;2023-04-06T07:43:00;8.32;;;4.38;;
22284;SDS011;11311;52.192;20.900;2023-04-06T07:45:31;12.60;;;4.93;;
22284;SDS011;11311;52.192;20.900;2023-04-06T07:48:01;8.60;;;4.38;;
22284;SDS011;11311;52.192;20.900;2023-04-06T07:50:32;5.00;;;4.20;;
22284;SDS011;11311;52.192;20.900;2023-04-06T07:53:01;6.18;;;4.22;;
22284;SDS011;11311;52.192;20.900;2023-04-06T07:55:31;8.30;;;3.97;;
22284;SDS011;11311;52.192;20.900;2023-04-06T07:58:01;8.98;;;4.25;;
22284;SDS011;11311;52.192;20.900;2023-04-06T08:00:31;9.48;;;4.90;;
22284;SDS011;11311;52.192;20.900;2023-04-06T08:03:00;5.50;;;4.88;;
22284;SDS011;11311;52.192;20.900;2023-04-06T08:05:30;7.82;;;5.00;;
22284;SDS011;11311;52.192;20.900;2023-04-06T08:07:59;6.93;;;4.90;;
22284;SDS011;11311;52.192;20.900;2023-04-06T08:10:28;6.50;;;4.38;;
22284;SDS011;11311;52.192;20.900;2023-04-06T08:12:59;7.10;;;4.30;;
22284;SDS011;11311;52.192;20.900;2023-04-06T08:15:29;8.23;;;4.15;;
22284;SDS011;11311;52.192;20.900;2023-04-06T08:17:58;10.15;;;4.82;;
22284;SDS011;11311;52.192;20.900;2023-04-06T08:20:28;6.35;;;3.78;;
22284;SDS011;11311;52.192;20.900;2023-04-06T08:22:57;7.97;;;4.80;;
22284;SDS011;11311;52.192;20.900;2023-04-06T08:25:26;6.57;;;3.92;;
22284;SDS011;11311;52.192;20.900;2023-04-06T08:27:55;7.38;;;4.30;;
22284;SDS011;11311;52.192;20.900;2023-04-06T08:30:25;7.07;;;4.57;;
22284;SDS011;11311;52.192;20.900;2023-04-06T08:32:56;8.07;;;4.87;;
22284;SDS011;11311;52.192;20.900;2023-04-06T08:37:54;7.78;;;5.47;;
22284;SDS011;11311;52.192;20.900;2023-04-06T08:40:23;9.43;;;4.72;;
22284;SDS011;11311;52.192;20.900;2023-04-06T08:42:54;6.38;;;4.38;;
22284;SDS011;11311;52.192;20.900;2023-04-06T08:45:24;6.97;;;4.05;;
22284;SDS011;11311;52.192;20.900;2023-04-06T08:47:53;6.60;;;4.57;;
22284;SDS011;11311;52.192;20.900;2023-04-06T08:50:24;7.55;;;4.57;;
22284;SDS011;11311;52.192;20.900;2023-04-06T08:52:53;7.25;;;4.05;;
22284;SDS011;11311;52.192;20.900;2023-04-06T08:55:23;8.43;;;4.77;;
22284;SDS011;11311;52.192;20.900;2023-04-06T08:57:52;8.80;;;4.28;;
22284;SDS011;11311;52.192;20.900;2023-04-06T09:00:23;10.13;;;4.50;;
22284;SDS011;11311;52.192;20.900;2023-04-06T09:02:56;5.85;;;4.53;;
22284;SDS011;11311;52.192;20.900;2023-04-06T09:05:26;8.55;;;4.93;;
22284;SDS011;11311;52.192;20.900;2023-04-06T09:07:56;7.43;;;5.63;;
22284;SDS011;11311;52.192;20.900;2023-04-06T09:10:25;7.32;;;4.97;;
22284;SDS011;11311;52.192;20.900;2023-04-06T09:13:02;11.45;;;5.35;;
22284;SDS011;11311;52.192;20.900;2023-04-06T09:15:32;7.85;;;4.95;;
22284;SDS011;11311;52.192;20.900;2023-04-06T09:18:03;8.70;;;4.75;;
22284;SDS011;11311;52.192;20.900;2023-04-06T09:20:33;8.07;;;4.80;;
22284;SDS011;11311;52.192;20.900;2023-04-06T09:23:02;14.25;;;5.70;;
22284;SDS011;11311;52.192;20.900;2023-04-06T09:25:31;14.43;;;5.45;;
22284;SDS011;11311;52.192;20.900;2023-04-06T09:28:01;6.55;;;5.25;;
22284;SDS011;11311;52.192;20.900;2023-04-06T09:30:31;8.35;;;5.85;;
22284;SDS011;11311;52.192;20.900;2023-04-06T09:33:00;7.70;;;4.57;;
22284;SDS011;11311;52.192;20.900;2023-04-06T09:35:31;11.18;;;5.05;;
22284;SDS011;11311;52.192;20.900;2023-04-06T09:38:09;8.05;;;5.50;;
22284;SDS011;11311;52.192;20.900;2023-04-06T09:40:47;13.10;;;5.38;;
22284;SDS011;11311;52.192;20.900;2023-04-06T09:43:29;10.95;;;6.05;;
22284;SDS011;11311;52.192;20.900;2023-04-06T09:45:58;11.77;;;5.65;;
22284;SDS011;11311;52.192;20.900;2023-04-06T09:48:32;9.82;;;5.25;;
22284;SDS011;11311;52.192;20.900;2023-04-06T09:51:05;6.95;;;4.93;;
22284;SDS011;11311;52.192;20.900;2023-04-06T09:53:35;12.00;;;5.07;;
22284;SDS011;11311;52.192;20.900;2023-04-06T09:56:06;6.40;;;4.80;;
22284;SDS011;11311;52.192;20.900;2023-04-06T09:58:37;6.38;;;5.03;;
22284;SDS011;11311;52.192;20.900;2023-04-06T10:01:09;6.90;;;5.18;;
22284;SDS011;11311;52.192;20.900;2023-04-06T10:03:44;8.55;;;4.97;;
22284;SDS011;11311;52.192;20.900;2023-04-06T10:06:23;5.45;;;4.95;;
22284;SDS011;11311;52.192;20.900;2023-04-06T10:08:55;5.82;;;5.00;;
22284;SDS011;11311;52.192;20.900;2023-04-06T10:11:25;7.20;;;5.18;;
22284;SDS011;11311;52.192;20.900;2023-04-06T10:13:54;15.82;;;6.15;;
22284;SDS011;11311;52.192;20.900;2023-04-06T10:16:24;8.43;;;5.28;;
22284;SDS011;11311;52.192;20.900;2023-04-06T10:18:58;9.70;;;5.30;;
22284;SDS011;11311;52.192;20.900;2023-04-06T10:21:32;6.93;;;5.03;;
22284;SDS011;11311;52.192;20.900;2023-04-06T10:24:08;15.88;;;5.47;;
22284;SDS011;11311;52.192;20.900;2023-04-06T10:26:39;5.97;;;5.03;;
22284;SDS011;11311;52.192;20.900;2023-04-06T10:29:08;6.97;;;5.50;;
22284;SDS011;11311;52.192;20.900;2023-04-06T10:31:39;7.75;;;5.63;;
22284;SDS011;11311;52.192;20.900;2023-04-06T10:34:11;10.93;;;5.78;;
22284;SDS011;11311;52.192;20.900;2023-04-06T10:36:43;11.45;;;5.22;;
22284;SDS011;11311;52.192;20.900;2023-04-06T10:39:13;9.05;;;6.07;;
22284;SDS011;11311;52.192;20.900;2023-04-06T10:41:43;7.63;;;5.97;;
22284;SDS011;11311;52.192;20.900;2023-04-06T10:44:19;11.70;;;7.22;;
22284;SDS011;11311;52.192;20.900;2023-04-06T10:46:52;12.52;;;7.45;;
22284;SDS011;11311;52.192;20.900;2023-04-06T10:49:22;13.60;;;7.32;;
22284;SDS011;11311;52.192;20.900;2023-04-06T10:51:55;11.27;;;6.25;;
22284;SDS011;11311;52.192;20.900;2023-04-06T10:54:26;11.32;;;6.00;;
22284;SDS011;11311;52.192;20.900;2023-04-06T10:56:55;11.98;;;6.13;;
22284;SDS011;11311;52.192;20.900;2023-04-06T10:59:25;8.57;;;6.03;;
22284;SDS011;11311;52.192;20.900;2023-04-06T11:01:54;7.97;;;5.80;;
22284;SDS011;11311;52.192;20.900;2023-04-06T11:04:23;8.80;;;6.68;;
22284;SDS011;11311;52.192;20.900;2023-04-06T11:09:25;6.55;;;5.85;;
22284;SDS011;11311;52.192;20.900;2023-04-06T11:11:54;8.30;;;6.38;;
22284;SDS011;11311;52.192;20.900;2023-04-06T11:14:24;7.90;;;5.78;;
22284;SDS011;11311;52.192;20.900;2023-04-06T11:16:54;11.90;;;6.30;;
22284;SDS011;11311;52.192;20.900;2023-04-06T11:19:24;9.35;;;6.05;;
22284;SDS011;11311;52.192;20.900;2023-04-06T11:21:55;7.70;;;6.83;;
22284;SDS011;11311;52.192;20.900;2023-04-06T11:24:26;10.23;;;6.90;;
22284;SDS011;11311;52.192;20.900;2023-04-06T11:26:56;8.37;;;6.60;;
22284;SDS011;11311;52.192;20.900;2023-04-06T11:29:29;10.40;;;7.30;;
22284;SDS011;11311;52.192;20.900;2023-04-06T11:31:59;9.48;;;7.32;;
22284;SDS011;11311;52.192;20.900;2023-04-06T11:37:00;10.52;;;8.13;;
22284;SDS011;11311;52.192;20.900;2023-04-06T11:39:37;8.52;;;7.40;;
22284;SDS011;11311;52.192;20.900;2023-04-06T11:42:09;13.57;;;7.35;;
22284;SDS011;11311;52.192;20.900;2023-04-06T11:44:39;8.60;;;6.57;;
22284;SDS011;11311;52.192;20.900;2023-04-06T11:47:11;12.55;;;8.25;;
22284;SDS011;11311;52.192;20.900;2023-04-06T11:49:41;11.15;;;7.78;;
22284;SDS011;11311;52.192;20.900;2023-04-06T11:52:16;10.32;;;8.00;;
22284;SDS011;11311;52.192;20.900;2023-04-06T11:54:47;11.80;;;8.65;;
22284;SDS011;11311;52.192;20.900;2023-04-06T11:57:17;11.60;;;8.23;;
22284;SDS011;11311;52.192;20.900;2023-04-06T11:59:47;9.50;;;7.97;;
22284;SDS011;11311;52.192;20.900;2023-04-06T12:02:17;9.83;;;7.17;;
22284;SDS011;11311;52.192;20.900;2023-04-06T12:04:45;9.60;;;8.05;;
22284;SDS011;11311;52.192;20.900;2023-04-06T12:07:16;12.13;;;8.52;;
22284;SDS011;11311;52.192;20.900;2023-04-06T12:09:45;16.42;;;7.93;;
22284;SDS011;11311;52.192;20.900;2023-04-06T12:12:15;12.60;;;8.13;;
22284;SDS011;11311;52.192;20.900;2023-04-06T12:14:44;11.68;;;8.55;;
22284;SDS011;11311;52.192;20.900;2023-04-06T12:17:13;14.20;;;8.40;;
22284;SDS011;11311;52.192;20.900;2023-04-06T12:19:45;12.07;;;8.25;;
22284;SDS011;11311;52.192;20.900;2023-04-06T12:22:17;9.48;;;7.28;;
22284;SDS011;11311;52.192;20.900;2023-04-06T12:24:46;12.82;;;8.23;;
22284;SDS011;11311;52.192;20.900;2023-04-06T12:27:15;11.07;;;8.15;;
22284;SDS011;11311;52.192;20.900;2023-04-06T12:29:44;13.60;;;7.38;;
22284;SDS011;11311;52.192;20.900;2023-04-06T12:32:13;9.55;;;7.32;;
22284;SDS011;11311;52.192;20.900;2023-04-06T12:34:42;11.15;;;6.30;;
22284;SDS011;11311;52.192;20.900;2023-04-06T12:37:11;10.32;;;7.47;;
22284;SDS011;11311;52.192;20.900;2023-04-06T12:39:42;7.97;;;6.43;;
22284;SDS011;11311;52.192;20.900;2023-04-06T12:42:13;8.88;;;6.13;;
22284;SDS011;11311;52.192;20.900;2023-04-06T12:44:42;13.65;;;6.80;;
22284;SDS011;11311;52.192;20.900;2023-04-06T12:47:12;7.70;;;6.47;;
22284;SDS011;11311;52.192;20.900;2023-04-06T12:49:40;11.10;;;7.60;;
22284;SDS011;11311;52.192;20.900;2023-04-06T12:52:10;14.43;;;7.50;;
22284;SDS011;11311;52.192;20.900;2023-04-06T12:54:41;11.68;;;8.02;;
22284;SDS011;11311;52.192;20.900;2023-04-06T12:57:12;11.13;;;7.15;;
22284;SDS011;11311;52.192;20.900;2023-04-06T13:02:12;11.30;;;6.68;;
22284;SDS011;11311;52.192;20.900;2023-04-06T13:04:41;9.48;;;6.57;;
22284;SDS011;11311;52.192;20.900;2023-04-06T13:07:10;9.73;;;6.00;;
22284;SDS011;11311;52.192;20.900;2023-04-06T13:09:39;11.23;;;7.32;;
22284;SDS011;11311;52.192;20.900;2023-04-06T13:12:10;6.75;;;5.78;;
22284;SDS011;11311;52.192;20.900;2023-04-06T13:14:39;8.10;;;6.35;;
22284;SDS011;11311;52.192;20.900;2023-04-06T13:17:09;8.88;;;6.10;;
22284;SDS011;11311;52.192;20.900;2023-04-06T13:19:37;9.98;;;6.95;;
22284;SDS011;11311;52.192;20.900;2023-04-06T13:22:07;8.27;;;6.07;;
22284;SDS011;11311;52.192;20.900;2023-04-06T13:24:36;8.70;;;6.32;;
22284;SDS011;11311;52.192;20.900;2023-04-06T13:27:05;9.75;;;6.30;;
22284;SDS011;11311;52.192;20.900;2023-04-06T13:29:36;7.68;;;6.05;;
22284;SDS011;11311;52.192;20.900;2023-04-06T13:32:05;8.13;;;6.05;;
22284;SDS011;11311;52.192;20.900;2023-04-06T13:34:36;10.15;;;6.03;;
22284;SDS011;11311;52.192;20.900;2023-04-06T13:37:05;6.72;;;5.68;;
22284;SDS011;11311;52.192;20.900;2023-04-06T13:39:34;10.95;;;7.22;;
22284;SDS011;11311;52.192;20.900;2023-04-06T13:42:04;8.52;;;6.53;;
22284;SDS011;11311;52.192;20.900;2023-04-06T13:44:33;10.27;;;6.97;;
22284;SDS011;11311;52.192;20.900;2023-04-06T13:47:04;12.43;;;6.75;;
22284;SDS011;11311;52.192;20.900;2023-04-06T13:49:34;8.63;;;6.72;;
22284;SDS011;11311;52.192;20.900;2023-04-06T13:52:03;6.85;;;4.63;;
22284;SDS011;11311;52.192;20.900;2023-04-06T13:54:33;8.23;;;6.20;;
22284;SDS011;11311;52.192;20.900;2023-04-06T13:57:02;6.93;;;5.95;;
22284;SDS011;11311;52.192;20.900;2023-04-06T13:59:32;8.65;;;6.22;;
22284;SDS011;11311;52.192;20.900;2023-04-06T14:02:03;9.38;;;7.05;;
22284;SDS011;11311;52.192;20.900;2023-04-06T14:04:32;10.77;;;7.18;;
22284;SDS011;11311;52.192;20.900;2023-04-06T14:07:02;8.23;;;6.53;;
22284;SDS011;11311;52.192;20.900;2023-04-06T14:09:34;8.93;;;6.88;;
22284;SDS011;11311;52.192;20.900;2023-04-06T14:12:03;8.98;;;6.50;;
22284;SDS011;11311;52.192;20.900;2023-04-06T14:14:32;10.05;;;6.57;;
22284;SDS011;11311;52.192;20.900;2023-04-06T14:17:03;8.40;;;5.75;;
22284;SDS011;11311;52.192;20.900;2023-04-06T14:19:31;7.78;;;6.40;;
22284;SDS011;11311;52.192;20.900;2023-04-06T14:22:01;12.95;;;6.90;;
22284;SDS011;11311;52.192;20.900;2023-04-06T14:24:31;11.85;;;6.97;;
22284;SDS011;11311;52.192;20.900;2023-04-06T14:27:00;8.27;;;6.15;;
22284;SDS011;11311;52.192;20.900;2023-04-06T14:29:29;9.50;;;6.37;;
22284;SDS011;11311;52.192;20.900;2023-04-06T14:31:58;12.07;;;6.85;;
22284;SDS011;11311;52.192;20.900;2023-04-06T14:34:29;8.35;;;5.82;;
22284;SDS011;11311;52.192;20.900;2023-04-06T14:36:59;8.55;;;6.70;;
22284;SDS011;11311;52.192;20.900;2023-04-06T14:39:28;9.27;;;6.65;;
22284;SDS011;11311;52.192;20.900;2023-04-06T14:41:57;9.38;;;6.90;;
22284;SDS011;11311;52.192;20.900;2023-04-06T14:44:26;10.77;;;6.28;;
22284;SDS011;11311;52.192;20.900;2023-04-06T14:46:55;7.72;;;6.90;;
22284;SDS011;11311;52.192;20.900;2023-04-06T14:49:24;9.75;;;5.93;;
22284;SDS011;11311;52.192;20.900;2023-04-06T14:51:54;7.22;;;6.15;;
22284;SDS011;11311;52.192;20.900;2023-04-06T14:54:24;9.25;;;6.47;;
22284;SDS011;11311;52.192;20.900;2023-04-06T14:56:53;14.55;;;7.75;;
22284;SDS011;11311;52.192;20.900;2023-04-06T14:59:23;13.60;;;8.10;;
22284;SDS011;11311;52.192;20.900;2023-04-06T15:01:52;16.67;;;8.55;;
22284;SDS011;11311;52.192;20.900;2023-04-06T15:04:21;11.70;;;8.30;;
22284;SDS011;11311;52.192;20.900;2023-04-06T15:06:50;17.38;;;8.20;;
22284;SDS011;11311;52.192;20.900;2023-04-06T15:09:21;11.02;;;8.00;;
22284;SDS011;11311;52.192;20.900;2023-04-06T15:11:50;11.05;;;7.32;;